Time;durP1;ratioP1;P1;durP2;ratioP2;P2;SDS_P1;SDS_P2;PMS_P1;PMS_P2;Temp;Humidity;BMP_temperature;BMP_pressure;BME280_temperature;BME280_humidity;BME280_pressure;Samples;Min_cycle;Max_cycle;Signal;HPM_P1;HPM_P2
2021/06/08 00:04:09;;;;;;;8.73;5.80;;;;;;;17.05;100.00;102360.14;1972047;73;30998;-75
2021/06/08 00:09:33;;;;;;;6.70;5.30;;;;;;;16.72;100.00;102364.58;1971839;73;32957;-76
2021/06/08 00:14:57;;;;;;;7.23;5.13;;;;;;;16.29;100.00;102363.37;1972028;73;33023;-74
2021/06/08 00:20:21;;;;;;;6.43;5.40;;;;;;;16.14;100.00;102361.16;1971895;73;32918;-77
2021/06/08 00:25:45;;;;;;;8.27;6.03;;;;;;;16.18;100.00;102359.47;1971799;73;31014;-77
2021/06/08 00:31:09;;;;;;;8.87;6.77;;;;;;;16.29;100.00;102364.77;1971972;73;33433;-75
2021/06/08 00:36:33;;;;;;;7.03;6.40;;;;;;;16.33;100.00;102363.62;1971979;73;33481;-75
2021/06/08 00:41:58;;;;;;;7.23;5.70;;;;;;;16.24;100.00;102359.73;1971881;73;32880;-77
2021/06/08 00:47:22;;;;;;;7.70;5.23;;;;;;;16.12;100.00;102360.62;1972017;73;33531;-76
2021/06/08 00:52:51;;;;;;;6.37;5.57;;;;;;;15.70;100.00;102361.03;1971939;73;32886;-75
2021/06/08 00:58:13;;;;;;;7.33;6.23;;;;;;;15.69;100.00;102357.94;1972040;73;33416;-75
2021/06/08 01:03:37;;;;;;;9.50;6.60;;;;;;;15.72;100.00;102352.60;1971829;73;32942;-78
2021/06/08 01:09:04;;;;;;;7.93;6.50;;;;;;;15.55;100.00;102361.03;1971796;72;33005;-75
2021/06/08 01:14:35;;;;;;;7.17;5.90;;;;;;;15.36;100.00;102363.55;1971828;73;32861;-78
2021/06/08 01:20:02;;;;;;;6.53;5.80;;;;;;;15.41;100.00;102371.93;1971815;73;32928;-75
2021/06/08 01:25:26;;;;;;;7.23;5.90;;;;;;;15.55;100.00;102365.23;1971963;73;33009;-76
2021/06/08 01:30:52;;;;;;;8.43;6.63;;;;;;;15.53;100.00;102362.73;1972120;73;33400;-77
2021/06/08 01:36:19;;;;;;;9.07;6.80;;;;;;;15.43;100.00;102364.94;1972023;73;32946;-76
2021/06/08 01:41:45;;;;;;;7.80;6.37;;;;;;;15.40;100.00;102364.08;1971960;73;33451;-75
2021/06/08 01:47:10;;;;;;;7.60;6.80;;;;;;;15.30;100.00;102370.27;1971996;73;33015;-76
2021/06/08 01:52:39;;;;;;;7.63;6.83;;;;;;;15.18;100.00;102374.75;1971971;73;32865;-75
2021/06/08 01:58:12;;;;;;;7.13;6.43;;;;;;;15.23;100.00;102373.91;1971884;73;32852;-77
2021/06/08 02:00:47;;;;;;;8.47;6.43;;;;;;;15.23;100.00;102383.71;1934911;74;26180;-78
2021/06/08 02:03:21;;;;;;;8.07;6.73;;;;;;;15.16;100.00;102381.73;1934628;74;26192;-77
2021/06/08 02:05:53;;;;;;;7.63;6.37;;;;;;;15.04;100.00;102382.00;1934626;74;26639;-76
2021/06/08 02:08:29;;;;;;;8.03;6.23;;;;;;;14.96;100.00;102384.80;1934739;74;26196;-78
2021/06/08 02:13:59;;;;;;;8.90;6.70;;;;;;;14.88;100.00;102371.91;1971964;72;33366;-75
2021/06/08 02:19:30;;;;;;;8.07;7.27;;;;;;;14.89;100.00;102377.21;1971835;73;33000;-77
2021/06/08 02:24:56;;;;;;;8.97;6.07;;;;;;;14.81;100.00;102376.91;1971712;73;33394;-75
2021/06/08 02:30:23;;;;;;;8.13;6.10;;;;;;;14.77;100.00;102378.59;1971975;73;33477;-76
2021/06/08 02:35:49;;;;;;;6.90;6.10;;;;;;;14.69;100.00;102381.92;1971796;73;32853;-78
2021/06/08 02:41:15;;;;;;;6.60;5.90;;;;;;;14.48;100.00;102399.20;1972011;73;33469;-75
2021/06/08 02:46:42;;;;;;;8.40;6.80;;;;;;;14.49;100.00;102393.34;1962684;71;32874;-75
2021/06/08 02:52:08;;;;;;;7.50;6.40;;;;;;;14.57;100.00;102396.16;1971812;73;32927;-78
2021/06/08 02:57:34;;;;;;;8.73;6.23;;;;;;;14.47;100.00;102392.77;1971840;73;32942;-78
2021/06/08 03:03:04;;;;;;;10.40;7.20;;;;;;;14.31;100.00;102390.15;1972036;72;33429;-75
2021/06/08 03:08:33;;;;;;;8.47;6.97;;;;;;;14.32;100.00;102391.28;1971864;73;32995;-75
2021/06/08 03:13:59;;;;;;;7.07;5.47;;;;;;;14.26;100.00;102385.38;1971949;73;32913;-78
2021/06/08 03:19:28;;;;;;;4.90;4.40;;;;;;;13.81;100.00;102389.33;1971710;73;33089;-75
2021/06/08 03:24:57;;;;;;;5.40;4.63;;;;;;;13.72;100.00;102388.98;1971940;73;33408;-75
2021/06/08 03:30:26;;;;;;;5.60;5.10;;;;;;;13.70;100.00;102391.19;1971763;73;32968;-75
2021/06/08 03:35:52;;;;;;;7.03;5.93;;;;;;;13.89;100.00;102396.64;1971725;73;33012;-76
2021/06/08 03:41:17;;;;;;;8.57;7.17;;;;;;;13.89;100.00;102397.19;1971746;73;32966;-75
2021/06/08 03:46:44;;;;;;;8.60;7.07;;;;;;;13.91;100.00;102403.33;1971679;72;33009;-77
2021/06/08 03:52:09;;;;;;;10.17;7.97;;;;;;;13.91;100.00;102402.78;1972041;73;33341;-77
2021/06/08 03:57:39;;;;;;;8.40;7.60;;;;;;;13.79;100.00;102405.49;1971812;73;32865;-74
2021/06/08 04:03:06;;;;;;;9.80;7.50;;;;;;;13.78;100.00;102406.05;1971788;73;33044;-74
2021/06/08 04:08:34;;;;;;;9.10;7.10;;;;;;;13.78;100.00;102406.05;1972030;73;33394;-77
2021/06/08 04:13:58;;;;;;;8.17;6.93;;;;;;;13.80;100.00;102400.20;1971792;73;32942;-77
2021/06/08 04:19:23;;;;;;;7.67;6.87;;;;;;;13.71;100.00;102404.60;1971980;72;33459;-77
2021/06/08 04:24:49;;;;;;;7.33;6.63;;;;;;;13.49;100.00;102408.35;1972015;73;33363;-78
2021/06/08 04:30:20;;;;;;;8.47;6.83;;;;;;;13.43;100.00;102416.41;1972061;73;32908;-78
2021/06/08 04:35:44;;;;;;;7.27;6.50;;;;;;;13.47;100.00;102414.77;1971915;73;32974;-78
2021/06/08 04:41:12;;;;;;;7.50;5.67;;;;;;;13.72;100.00;102410.48;1972006;72;32918;-75
2021/06/08 04:46:40;;;;;;;8.77;7.10;;;;;;;13.58;100.00;102416.52;1950985;73;32942;-78
2021/06/08 04:52:07;;;;;;;7.93;6.70;;;;;;;13.78;100.00;102424.78;1971908;73;32917;-75
2021/06/08 04:57:33;;;;;;;7.33;5.60;;;;;;;13.70;100.00;102424.70;1971751;73;32968;-78
2021/06/08 05:03:03;;;;;;;7.77;6.90;;;;;;;13.93;100.00;102418.73;1971788;73;33019;-76
2021/06/08 05:08:31;;;;;;;10.53;7.37;;;;;;;14.16;100.00;102420.28;1971777;73;32873;-75
2021/06/08 05:14:01;;;;;;;7.90;7.10;;;;;;;14.14;100.00;102416.90;1971818;73;32869;-75
2021/06/08 05:19:27;;;;;;;7.60;6.83;;;;;;;14.44;100.00;102420.44;1971776;73;32864;-75
2021/06/08 05:24:53;;;;;;;9.67;7.40;;;;;;;14.49;100.00;102414.31;1971889;73;32853;-78
2021/06/08 05:30:19;;;;;;;7.17;6.33;;;;;;;14.62;100.00;102410.72;1971788;73;32862;-78
2021/06/08 05:35:43;;;;;;;8.83;5.60;;;;;;;14.70;100.00;102410.19;1971809;73;32888;-76
2021/06/08 05:41:10;;;;;;;9.37;6.70;;;;;;;14.64;100.00;102407.08;1971820;73;32999;-75
2021/06/08 05:46:37;;;;;;;7.73;6.33;;;;;;;14.72;100.00;102405.98;1963296;71;33376;-74
2021/06/08 05:52:01;;;;;;;7.23;5.67;;;;;;;14.86;100.00;102411.34;1971723;73;32957;-75
2021/06/08 05:57:27;;;;;;;7.47;5.97;;;;;;;14.74;100.00;102414.11;1972067;73;33403;-76
2021/06/08 06:02:53;;;;;;;7.77;6.07;;;;;;;14.92;100.00;102419.20;1971941;73;33401;-78
2021/06/08 06:08:18;;;;;;;7.87;6.27;;;;;;;15.07;100.00;102410.83;1971991;73;33355;-79
2021/06/08 06:13:47;;;;;;;6.60;5.13;;;;;;;15.10;100.00;102410.30;1972022;73;33308;-76
2021/06/08 06:19:15;;;;;;;6.47;5.80;;;;;;;15.13;100.00;102409.73;1971836;73;32933;-78
2021/06/08 06:24:39;;;;;;;7.17;5.53;;;;;;;15.25;100.00;102400.50;1971811;73;32945;-73
2021/06/08 06:30:06;;;;;;;7.07;4.83;;;;;;;15.44;100.00;102406.39;1971835;73;33024;-75
2021/06/08 06:35:32;;;;;;;6.63;5.50;;;;;;;15.62;100.00;102403.59;1971786;73;32949;-77
2021/06/08 06:40:59;;;;;;;6.40;4.70;;;;;;;15.70;100.00;102393.25;1972213;73;33456;-77
2021/06/08 06:46:25;;;;;;;6.27;4.77;;;;;;;15.85;100.00;102398.81;1953596;73;32887;-78
2021/06/08 06:51:50;;;;;;;6.87;5.10;;;;;;;16.05;100.00;102391.75;1971987;73;32943;-78
2021/06/08 06:57:15;;;;;;;4.87;4.00;;;;;;;16.20;100.00;102388.92;1972026;73;33511;-75
2021/06/08 07:02:42;;;;;;;4.87;4.00;;;;;;;16.43;100.00;102389.40;1971936;73;32945;-75
2021/06/08 07:08:10;;;;;;;7.47;4.57;;;;;;;16.52;100.00;102389.89;1971970;73;32883;-81
2021/06/08 07:13:36;;;;;;;4.23;3.57;;;;;;;16.70;100.00;102383.66;1972105;73;32972;-79
2021/06/08 07:19:02;;;;;;;3.97;3.57;;;;;;;16.74;100.00;102388.97;1971770;73;32905;-79
2021/06/08 07:24:27;;;;;;;3.90;2.83;;;;;;;17.04;100.00;102377.27;1971999;73;32990;-77
2021/06/08 07:29:54;;;;;;;5.70;2.90;;;;;;;17.41;100.00;102376.15;1972121;73;33401;-75
2021/06/08 07:35:23;;;;;;;4.93;2.40;;;;;;;18.04;100.00;102374.12;1972052;73;32955;-77
2021/06/08 07:41:01;;;;;;;6.27;2.27;;;;;;;18.18;100.00;102370.84;1972118;73;31474;-80
2021/06/08 07:46:30;;;;;;;4.30;2.80;;;;;;;18.14;100.00;102373.19;1971793;73;32908;-75
2021/06/08 07:51:57;;;;;;;2.90;2.30;;;;;;;18.52;100.00;102374.11;1971945;72;32868;-75
2021/06/08 07:57:23;;;;;;;4.43;2.90;;;;;;;18.70;100.00;102372.49;1972026;73;31021;-74
2021/06/08 08:02:50;;;;;;;4.13;2.77;;;;;;;19.33;100.00;102370.09;1971808;73;31035;-78
2021/06/08 08:08:19;;;;;;;3.90;2.33;;;;;;;19.62;100.00;102376.95;1972212;73;30916;-78
2021/06/08 08:13:46;;;;;;;4.33;2.63;;;;;;;19.65;100.00;102374.34;1972180;73;31014;-76
2021/06/08 08:19:11;;;;;;;6.20;3.17;;;;;;;19.80;100.00;102370.41;1972144;73;33535;-75
2021/06/08 08:24:35;;;;;;;3.63;3.00;;;;;;;19.52;100.00;102367.52;1971865;72;31004;-81
2021/06/08 08:30:01;;;;;;;3.07;2.77;;;;;;;19.88;100.00;102362.06;1971994;73;30981;-75
2021/06/08 08:35:26;;;;;;;4.00;2.93;;;;;;;20.32;100.00;102357.23;1972061;73;31555;-78
2021/06/08 08:40:51;;;;;;;5.73;2.90;;;;;;;20.43;100.00;102353.06;1972038;73;30919;-79
2021/06/08 08:46:19;;;;;;;4.80;3.10;;;;;;;20.49;100.00;102352.95;1955234;72;31042;-79
2021/06/08 08:51:46;;;;;;;2.93;2.60;;;;;;;20.80;100.00;102351.93;1972045;73;33419;-78
2021/06/08 08:57:14;;;;;;;3.33;2.77;;;;;;;21.05;100.00;102355.33;1972100;73;31011;-75
2021/06/08 09:02:41;;;;;;;4.27;2.67;;;;;;;21.44;100.00;102354.05;1972001;73;30934;-78
2021/06/08 09:08:09;;;;;;;2.60;2.40;;;;;;;21.27;100.00;102350.53;1971905;73;30940;-75
2021/06/08 09:13:34;;;;;;;3.27;2.67;;;;;;;21.11;100.00;102353.45;1972249;73;33362;-75
2021/06/08 09:19:00;;;;;;;3.37;3.03;;;;;;;21.21;100.00;102351.83;1971986;72;30921;-75
2021/06/08 09:24:27;;;;;;;5.90;2.47;;;;;;;21.38;100.00;102348.87;1972076;73;33423;-79
2021/06/08 09:29:59;;;;;;;2.83;2.50;;;;;;;21.41;100.00;102350.47;1971920;73;30952;-78
2021/06/08 09:35:27;;;;;;;3.53;2.20;;;;;;;21.52;100.00;102347.62;1972234;73;30985;-79
2021/06/08 09:40:51;;;;;;;2.60;2.10;;;;;;;21.93;100.00;102349.38;1971811;73;30995;-75
2021/06/08 09:46:17;;;;;;;2.20;2.00;;;;;;;21.88;100.00;102346.08;1955309;73;31027;-75
2021/06/08 09:51:53;;;;;;;3.53;1.90;;;;;;;21.51;100.00;102347.95;1971879;73;31004;-81
2021/06/08 09:57:32;;;;;;;2.97;2.40;;;;;;;21.63;100.00;102336.88;1971887;73;31001;-75
2021/06/08 10:02:58;;;;;;;4.27;2.17;;;;;;;21.80;100.00;102336.98;1971877;73;31003;-76
2021/06/08 10:08:24;;;;;;;6.30;2.40;;;;;;;21.69;100.00;102334.19;1971861;73;31011;-76
2021/06/08 10:13:49;;;;;;;3.30;2.00;;;;;;;21.62;100.00;102330.96;1972036;73;31438;-81
2021/06/08 10:19:27;;;;;;;3.57;2.00;;;;;;;21.53;100.00;102319.60;1971892;73;31009;-75
2021/06/08 10:24:51;;;;;;;3.83;2.50;;;;;;;21.64;100.00;102321.02;1972002;73;31436;-77
2021/06/08 10:30:18;;;;;;;2.57;2.10;;;;;;;21.76;100.00;102329.72;1972104;73;30961;-80
2021/06/08 10:36:00;;;;;;;6.20;1.83;;;;;;;21.91;100.00;102307.80;2016185;71;30969;-74
2021/06/08 10:41:29;;;;;;;1.97;1.77;;;;;;;22.15;100.00;102301.20;1972091;73;31460;-74
2021/06/08 10:46:56;;;;;;;2.00;1.83;;;;;;;22.24;100.00;102302.06;1947970;73;31448;-81
2021/06/08 10:52:46;;;;;;;5.00;2.30;;;;;;;22.35;100.00;102299.16;1971920;73;30940;-76
2021/06/08 10:58:11;;;;;;;4.60;2.08;;;;;;;22.15;100.00;102302.61;1972090;73;31401;-75
2021/06/08 11:03:55;;;;;;;2.50;2.30;;;;;;;22.23;100.00;102296.14;1972203;73;31522;-75
2021/06/08 11:09:40;;;;;;;2.77;1.90;;;;;;;22.27;100.00;102294.31;1971915;73;30944;-78
2021/06/08 11:15:23;;;;;;;2.43;1.80;;;;;;;22.38;100.00;102297.07;1972079;73;31483;-75
2021/06/08 11:20:54;;;;;;;2.10;1.43;;;;;;;22.31;100.00;102293.91;1972065;73;30994;-75
2021/06/08 11:26:51;;;;;;;1.80;1.30;;;;;;;22.32;100.00;102281.42;1971935;73;30887;-80
2021/06/08 11:29:59;;;;;;;2.47;1.20;;;;;;;22.27;100.00;102287.23;1935111;74;24140;-79
2021/06/08 11:35:43;;;;;;;2.50;1.43;;;;;;;22.24;100.00;102276.58;1972057;73;31023;-79
2021/06/08 11:41:12;;;;;;;2.30;1.33;;;;;;;22.34;100.00;102278.23;1971988;72;31022;-80
2021/06/08 11:46:56;;;;;;;2.77;1.40;;;;;;;22.47;100.00;102279.52;1971787;73;31051;-75
2021/06/08 11:52:21;;;;;;;1.50;1.27;;;;;;;22.48;100.00;102272.70;1971850;73;30891;-74
2021/06/08 11:57:47;;;;;;;2.40;1.42;;;;;;;22.45;100.00;102280.45;1971931;73;30905;-75
2021/06/08 12:03:30;;;;;;;1.60;1.20;;;;;;;22.54;100.00;102269.12;1971856;73;31015;-75
2021/06/08 12:08:55;;;;;;;0.97;0.97;;;;;;;22.51;100.00;102264.94;1971934;72;30967;-75
2021/06/08 12:14:20;;;;;;;3.67;1.30;;;;;;;22.54;100.00;102264.30;1971982;73;30921;-80
2021/06/08 12:19:46;;;;;;;1.82;1.10;;;;;;;22.66;100.00;102250.30;1972222;73;30995;-80
2021/06/08 12:25:21;;;;;;;2.10;1.00;;;;;;;22.76;100.00;102251.17;1972003;73;31413;-81
2021/06/08 12:30:49;;;;;;;3.60;1.10;;;;;;;22.77;100.00;102252.23;1971925;72;30984;-76
2021/06/08 12:36:14;;;;;;;4.97;1.82;;;;;;;22.83;100.00;102238.74;1972086;73;30974;-74
2021/06/08 12:41:41;;;;;;;2.25;1.22;;;;;;;22.82;100.00;102231.40;1972120;73;30973;-75
2021/06/08 12:47:06;;;;;;;1.32;0.80;;;;;;;23.17;100.00;102237.84;1945319;73;30997;-75
2021/06/08 12:52:32;;;;;;;1.72;1.00;;;;;;;23.15;100.00;102237.59;1972074;73;31410;-75
2021/06/08 12:58:06;;;;;;;2.52;1.05;;;;;;;23.00;100.00;102233.05;1972171;73;31388;-78
2021/06/08 13:03:31;;;;;;;2.15;1.00;;;;;;;22.88;100.00;102239.98;1971925;73;31011;-75
2021/06/08 13:06:04;;;;;;;1.12;0.90;;;;;;;22.92;100.00;102236.16;1934867;74;24304;-80
2021/06/08 13:11:30;;;;;;;1.47;1.05;;;;;;;22.95;100.00;102238.30;1972019;73;30955;-81
2021/06/08 13:16:57;;;;;;;1.40;1.10;;;;;;;23.03;100.00;102230.95;1972024;73;31048;-75
2021/06/08 13:22:24;;;;;;;1.30;1.00;;;;;;;22.94;100.00;102234.38;1971930;73;30954;-75
2021/06/08 13:27:51;;;;;;;1.80;1.00;;;;;;;23.07;100.00;102225.69;1971948;73;30891;-75
2021/06/08 13:33:18;;;;;;;1.22;1.00;;;;;;;23.01;100.00;102224.80;1971937;73;30926;-80
2021/06/08 13:38:49;;;;;;;1.25;1.10;;;;;;;23.04;100.00;102219.29;1972098;73;30940;-80
2021/06/08 13:44:15;;;;;;;2.00;1.00;;;;;;;23.19;100.00;102217.09;1972163;73;31360;-80
2021/06/08 13:49:54;;;;;;;1.02;1.00;;;;;;;23.18;100.00;102214.84;1972136;73;31372;-75
2021/06/08 13:55:19;;;;;;;1.27;1.17;;;;;;;23.22;100.00;102218.66;1971809;73;30967;-74
2021/06/08 14:00:44;;;;;;;1.55;1.30;;;;;;;23.22;100.00;102195.14;1972000;73;30894;-75
2021/06/08 14:06:17;;;;;;;1.00;1.00;;;;;;;23.25;100.00;102193.88;1971870;73;30886;-80
2021/06/08 14:11:57;;;;;;;1.35;1.25;;;;;;;23.18;100.00;102202.08;1971798;73;30898;-78
2021/06/08 14:17:23;;;;;;;2.62;1.62;;;;;;;23.23;100.00;102201.07;1971866;73;30913;-75
2021/06/08 14:22:48;;;;;;;3.50;1.80;;;;;;;23.52;100.00;102191.23;1972031;73;31573;-73
2021/06/08 14:28:14;;;;;;;2.47;1.80;;;;;;;23.35;100.00;102202.61;1971856;73;31014;-74
2021/06/08 14:33:38;;;;;;;5.30;1.92;;;;;;;23.37;100.00;102194.58;1972063;73;30929;-77
2021/06/08 14:39:06;;;;;;;4.58;2.33;;;;;;;23.35;100.00;102194.10;1972233;73;31027;-77
2021/06/08 14:44:30;;;;;;;5.22;2.10;;;;;;;23.27;100.00;102187.30;1972253;73;31429;-78
2021/06/08 14:49:57;;;;;;;4.20;2.40;;;;;;;23.54;100.00;102177.52;1972122;73;30959;-77
2021/06/08 14:55:21;;;;;;;2.40;1.97;;;;;;;23.41;100.00;102181.38;1937276;74;31185;-78
2021/06/08 15:00:45;;;;;;;5.12;2.42;;;;;;;23.43;100.00;102179.05;1972081;72;30964;-86
2021/06/08 15:06:10;;;;;;;3.02;2.33;;;;;;;23.37;100.00;102184.66;1972076;73;31030;-76
2021/06/08 15:11:26;;;;;;;2.70;2.00;;;;;;;23.30;100.00;102184.36;1977588;72;30784;-77
2021/06/08 15:16:50;;;;;;;2.02;1.82;;;;;;;23.41;100.00;102183.64;1971927;72;31024;-79
2021/06/08 15:22:16;;;;;;;2.30;2.00;;;;;;;23.45;100.00;102178.98;1972086;73;31026;-77
2021/06/08 15:27:42;;;;;;;2.45;2.25;;;;;;;23.49;100.00;102177.73;1971895;73;31028;-80
2021/06/08 15:33:09;;;;;;;3.98;2.20;;;;;;;23.59;100.00;102176.75;1971930;73;30952;-77
2021/06/08 15:38:33;;;;;;;3.08;2.00;;;;;;;23.45;100.00;102171.05;1971855;73;31033;-80
2021/06/08 15:43:58;;;;;;;2.33;2.00;;;;;;;23.47;100.00;102174.39;1971827;73;30924;-77
2021/06/08 15:49:25;;;;;;;2.30;2.00;;;;;;;23.46;100.00;102167.88;1971907;73;30921;-73
2021/06/08 15:54:52;;;;;;;2.92;2.20;;;;;;;23.65;100.00;102163.80;1972131;73;30934;-79
2021/06/08 16:00:19;;;;;;;2.37;1.98;;;;;;;23.69;100.00;102157.67;1972169;73;30920;-82
2021/06/08 16:05:44;;;;;;;5.50;2.40;;;;;;;23.62;100.00;102155.36;1972025;73;31533;-76
2021/06/08 16:11:09;;;;;;;6.97;2.47;;;;;;;23.69;100.00;102143.49;1972137;73;31010;-76
2021/06/08 16:16:35;;;;;;;12.35;3.85;;;;;;;23.66;100.00;102152.08;1971884;72;30950;-72
2021/06/08 16:22:01;;;;;;;7.65;2.87;;;;;;;23.59;100.00;102149.80;1971912;73;30922;-80
2021/06/08 16:27:26;;;;;;;7.22;2.35;;;;;;;23.58;100.00;102156.64;1971877;73;31019;-77
2021/06/08 16:32:52;;;;;;;8.50;3.27;;;;;;;23.61;100.00;102154.30;1972029;73;31052;-74
2021/06/08 16:38:18;;;;;;;9.28;2.90;;;;;;;23.56;100.00;102149.66;1972085;73;31473;-81
2021/06/08 16:43:42;;;;;;;4.83;2.55;;;;;;;23.60;100.00;102144.95;1971995;73;30932;-82
2021/06/08 16:49:07;;;;;;;3.30;2.25;;;;;;;23.52;100.00;102149.52;1971852;73;30940;-74
2021/06/08 16:54:31;;;;;;;3.35;2.10;;;;;;;23.54;100.00;102147.73;1972142;73;31448;-82
2021/06/08 16:59:56;;;;;;;5.62;1.90;;;;;;;23.54;100.00;102147.73;1971923;73;30920;-78
2021/06/08 17:05:20;;;;;;;1.92;1.55;;;;;;;23.54;100.00;102144.89;1971679;73;31052;-75
2021/06/08 17:10:47;;;;;;;1.90;1.80;;;;;;;23.64;100.00;102146.52;1971613;73;30941;-76
2021/06/08 17:16:12;;;;;;;2.52;1.75;;;;;;;23.43;100.00;102138.80;1971670;73;30914;-72
2021/06/08 17:21:37;;;;;;;1.98;1.70;;;;;;;23.48;100.00;102134.35;1971850;73;33506;-76
2021/06/08 17:27:03;;;;;;;1.80;1.70;;;;;;;23.47;100.00;102149.70;1971584;73;31138;-76
2021/06/08 17:32:27;;;;;;;1.85;1.75;;;;;;;23.46;100.00;102147.19;1972027;73;30923;-76
2021/06/08 17:37:52;;;;;;;1.92;1.47;;;;;;;23.39;100.00;102148.30;1971582;73;30924;-75
2021/06/08 17:43:18;;;;;;;2.80;1.80;;;;;;;23.37;100.00;102142.95;1971915;73;31408;-77
2021/06/08 17:48:41;;;;;;;3.92;2.00;;;;;;;23.29;100.00;102133.06;1972402;73;30916;-76
2021/06/08 17:54:25;;;;;;;2.27;1.65;;;;;;;23.33;100.00;102127.79;1995701;71;30841;-80
2021/06/08 17:59:50;;;;;;;2.08;1.90;;;;;;;23.27;100.00;102124.08;1972591;73;30932;-81
2021/06/08 18:05:15;;;;;;;2.25;1.80;;;;;;;23.18;100.00;102128.37;1971895;73;31055;-77
2021/06/08 18:10:46;;;;;;;2.70;1.77;;;;;;;23.17;100.00;102128.70;1971777;73;33406;-74
2021/06/08 18:16:13;;;;;;;1.82;1.60;;;;;;;23.16;100.00;102126.45;1971855;73;31013;-74
2021/06/08 18:21:40;;;;;;;2.95;1.60;;;;;;;23.05;100.00;102133.67;1971691;73;30991;-75
2021/06/08 18:27:07;;;;;;;2.02;1.65;;;;;;;23.06;100.00;102133.92;1971819;72;30977;-77
2021/06/08 18:32:32;;;;;;;2.05;1.62;;;;;;;22.98;100.00;102131.92;1971783;73;31501;-76
2021/06/08 18:37:56;;;;;;;1.77;1.67;;;;;;;22.95;100.00;102128.36;1971662;73;31416;-76
2021/06/08 18:43:22;;;;;;;2.00;1.90;;;;;;;22.83;100.00;102129.06;1971668;73;30926;-76
2021/06/08 18:48:46;;;;;;;3.37;2.00;;;;;;;22.67;100.00;102127.91;1971613;73;30922;-77
2021/06/08 18:54:11;;;;;;;2.45;2.00;;;;;;;22.65;100.00;102131.66;1971654;73;31037;-77
2021/06/08 18:59:55;;;;;;;2.20;1.82;;;;;;;22.62;100.00;102126.09;2015873;71;30843;-77
2021/06/08 19:05:21;;;;;;;3.45;1.65;;;;;;;22.53;100.00;102130.09;1972317;73;30939;-86
2021/06/08 19:10:46;;;;;;;1.63;1.53;;;;;;;22.42;100.00;102127.38;1972323;73;30926;-80
2021/06/08 19:16:11;;;;;;;3.17;2.30;;;;;;;22.29;100.00;102126.38;1971712;73;30931;-74
2021/06/08 19:21:36;;;;;;;2.42;2.00;;;;;;;22.07;100.00;102123.71;1971679;73;30934;-76
2021/06/08 19:27:06;;;;;;;2.10;1.93;;;;;;;22.05;100.00;102131.11;1971798;73;31686;-81
2021/06/08 19:32:31;;;;;;;5.23;2.30;;;;;;;21.94;100.00;102130.35;1972404;73;31589;-79
2021/06/08 19:37:57;;;;;;;3.90;2.40;;;;;;;21.82;100.00;102140.05;1971884;73;31482;-74
2021/06/08 19:43:23;;;;;;;3.47;2.10;;;;;;;21.75;100.00;102138.52;1972560;73;30934;-81
2021/06/08 19:48:48;;;;;;;3.10;2.80;;;;;;;21.67;100.00;102144.16;1972234;73;31040;-78
2021/06/08 19:54:12;;;;;;;3.33;2.27;;;;;;;21.62;100.00;102141.48;1971598;73;32949;-76
2021/06/08 19:59:36;;;;;;;3.80;2.50;;;;;;;21.39;100.00;102141.34;1971744;73;31075;-75
2021/06/08 20:05:03;;;;;;;3.43;2.37;;;;;;;21.30;100.00;102146.39;1971710;73;31006;-82
2021/06/08 20:10:30;;;;;;;3.50;2.47;;;;;;;21.13;100.00;102157.61;1971703;73;30934;-81
2021/06/08 20:15:54;;;;;;;2.30;2.10;;;;;;;21.05;100.00;102166.02;1971810;73;31475;-74
2021/06/08 20:21:20;;;;;;;3.83;2.43;;;;;;;20.88;100.00;102173.78;1971805;73;31388;-81
2021/06/08 20:26:44;;;;;;;3.00;2.50;;;;;;;20.74;100.00;102183.77;1971733;72;31082;-79
2021/06/08 20:32:09;;;;;;;4.77;2.60;;;;;;;20.59;100.00;102188.38;1971718;73;30982;-78
2021/06/08 20:37:34;;;;;;;2.93;2.30;;;;;;;20.58;100.00;102198.59;1971888;73;32996;-75
2021/06/08 20:43:00;;;;;;;2.37;2.10;;;;;;;20.35;100.00;102199.98;1972127;73;30945;-80
2021/06/08 20:48:24;;;;;;;3.07;2.60;;;;;;;20.14;100.00;102202.15;1971945;73;33469;-77
2021/06/08 20:53:50;;;;;;;3.20;2.90;;;;;;;20.15;100.00;102211.69;1971953;73;31476;-78
2021/06/08 20:59:16;;;;;;;3.47;3.17;;;;;;;20.05;100.00;102211.09;1971941;73;31496;-79
2021/06/08 21:04:41;;;;;;;3.83;3.43;;;;;;;19.95;100.00;102217.22;1971723;73;31007;-75
2021/06/08 21:10:08;;;;;;;4.00;3.03;;;;;;;19.88;100.00;102216.81;1971816;73;31498;-80
2021/06/08 21:15:34;;;;;;;6.87;3.60;;;;;;;19.79;100.00;102215.05;1971732;73;30933;-79
2021/06/08 21:20:58;;;;;;;4.33;3.90;;;;;;;19.52;100.00;102218.12;1971795;73;30931;-77
2021/06/08 21:26:24;;;;;;;3.73;3.00;;;;;;;19.57;100.00;102227.05;1971674;73;31086;-75
2021/06/08 21:31:48;;;;;;;3.33;3.03;;;;;;;19.33;100.00;102232.86;1971952;73;31370;-78
2021/06/08 21:37:12;;;;;;;3.03;2.73;;;;;;;19.18;100.00;102233.13;1971691;73;31014;-76
2021/06/08 21:42:37;;;;;;;3.00;2.70;;;;;;;19.06;100.00;102231.38;1971751;73;31000;-77
2021/06/08 21:48:03;;;;;;;3.60;3.30;;;;;;;18.96;100.00;102229.57;1971956;73;30995;-76
2021/06/08 21:53:27;;;;;;;3.23;2.93;;;;;;;18.82;100.00;102232.94;1971765;73;31000;-76
2021/06/08 21:58:53;;;;;;;4.07;3.40;;;;;;;18.69;100.00;102234.28;1937300;72;39548;-76
2021/06/08 22:04:17;;;;;;;3.67;3.33;;;;;;;18.72;100.00;102229.44;1939831;72;39542;-77
2021/06/08 22:09:43;;;;;;;4.63;3.10;;;;;;;18.43;100.00;102233.25;1895040;72;39879;-76
2021/06/08 22:15:10;;;;;;;5.13;3.93;;;;;;;18.40;100.00;102228.80;1931438;72;39419;-76
2021/06/08 22:20:41;;;;;;;5.77;3.87;;;;;;;18.14;100.00;102229.14;1784984;79;86239;-76
2021/06/08 22:26:09;;;;;;;4.37;3.97;;;;;;;18.12;100.00;102241.85;1909770;73;39843;-76
2021/06/08 22:31:33;;;;;;;4.53;4.07;;;;;;;18.10;100.00;102239.89;1784909;79;86244;-76
2021/06/08 22:36:57;;;;;;;5.00;4.53;;;;;;;18.02;100.00;102237.77;1945348;73;40418;-76
2021/06/08 22:42:21;;;;;;;4.40;4.00;;;;;;;18.02;100.00;102243.38;1837028;77;86312;-76
2021/06/08 22:47:46;;;;;;;6.10;4.07;;;;;;;17.75;100.00;102241.22;1905559;73;39461;-76
2021/06/08 22:53:18;;;;;;;5.00;4.10;;;;;;;17.37;100.00;102250.63;1892285;75;85777;-76
2021/06/08 22:58:46;;;;;;;5.67;4.57;;;;;;;17.24;100.00;102247.34;1948292;72;39479;-76
2021/06/08 23:04:10;;;;;;;5.70;4.20;;;;;;;17.37;100.00;102245.81;1889461;73;39446;-76
2021/06/08 23:09:34;;;;;;;6.00;4.03;;;;;;;17.37;100.00;102238.79;1838056;77;86255;-76
2021/06/08 23:15:10;;;;;;;4.20;3.80;;;;;;;17.19;100.00;102245.18;1917425;72;39853;-76
2021/06/08 23:20:34;;;;;;;4.27;3.93;;;;;;;17.09;100.00;102261.55;1838026;77;86429;-76
2021/06/08 23:26:00;;;;;;;6.27;4.17;;;;;;;17.03;100.00;102251.48;1896433;73;39600;-76
2021/06/08 23:31:25;;;;;;;5.23;3.87;;;;;;;17.00;100.00;102252.09;1837262;77;86510;-76
2021/06/08 23:36:50;;;;;;;4.43;4.03;;;;;;;16.70;100.00;102257.95;1936446;72;39616;-76
2021/06/08 23:42:14;;;;;;;4.60;4.20;;;;;;;16.61;100.00;102249.88;1891783;74;86246;-77
2021/06/08 23:47:38;;;;;;;5.20;4.20;;;;;;;16.27;100.00;102255.40;1838406;77;86157;-76
2021/06/08 23:53:05;;;;;;;5.10;3.97;;;;;;;16.05;100.00;102267.56;1927305;73;39416;-76
2021/06/08 23:58:30;;;;;;;4.10;3.70;;;;;;;16.03;100.00;102269.28;1947498;71;86771;-76
